Time;durP1;ratioP1;P1;durP2;ratioP2;P2;SDS_P1;SDS_P2;PMS_P1;PMS_P2;Temp;Humidity;BMP_temperature;BMP_pressure;BME280_temperature;BME280_humidity;BME280_pressure;Samples;Min_cycle;Max_cycle;Signal;HPM_P1;HPM_P2
2022/01/03 00:00:41;;;;;;;13.48;6.87;;;;;;;12.05;57.09;98551.88;4503292;31;20083;-87
2022/01/03 00:03:09;;;;;;;15.57;7.00;;;;;;;12.12;56.76;98537.34;4503194;31;20102;-87
2022/01/03 00:05:34;;;;;;;16.10;7.03;;;;;;;12.13;56.52;98536.38;4488858;31;20130;-87
2022/01/03 00:08:00;;;;;;;13.50;6.12;;;;;;;12.10;56.37;98529.53;4503236;31;20096;-88
2022/01/03 00:10:25;;;;;;;14.45;6.57;;;;;;;12.07;56.45;98527.09;4503241;31;20088;-87
2022/01/03 00:12:51;;;;;;;14.13;6.50;;;;;;;12.09;56.20;98543.69;4489069;31;20359;-87
2022/01/03 00:15:18;;;;;;;13.93;6.40;;;;;;;12.05;56.24;98534.25;4488704;31;20473;-87
2022/01/03 00:17:44;;;;;;;14.00;6.28;;;;;;;12.08;56.16;98530.56;4503011;31;20146;-86
2022/01/03 00:20:11;;;;;;;16.75;7.68;;;;;;;11.99;55.94;98527.59;4503136;31;20475;-87
2022/01/03 00:22:41;;;;;;;16.10;7.47;;;;;;;11.97;56.32;98525.97;4503166;31;20452;-87
2022/01/03 00:25:15;;;;;;;15.57;7.12;;;;;;;11.96;56.53;98527.78;4503226;31;20100;-87
2022/01/03 00:27:46;;;;;;;13.32;7.03;;;;;;;11.85;56.91;98538.13;4475998;31;20364;-87
2022/01/03 00:30:12;;;;;;;16.67;7.10;;;;;;;11.94;56.81;98531.47;4488750;31;20084;-87
2022/01/03 00:32:39;;;;;;;16.50;7.68;;;;;;;11.92;56.87;98523.66;4502970;31;20166;-87
2022/01/03 00:35:05;;;;;;;15.70;7.30;;;;;;;11.93;56.93;98521.84;4488597;31;20180;-87
2022/01/03 00:37:31;;;;;;;16.58;7.78;;;;;;;11.67;57.37;98518.22;4488425;31;20175;-88
2022/01/03 00:39:58;;;;;;;17.48;8.57;;;;;;;11.80;57.18;98511.19;4502929;31;20084;-87
2022/01/03 00:42:23;;;;;;;17.05;8.27;;;;;;;11.81;57.35;98512.91;4488565;31;20148;-88
2022/01/03 00:44:49;;;;;;;16.48;9.00;;;;;;;11.80;57.44;98506.78;4488266;31;20423;-87
2022/01/03 00:47:15;;;;;;;17.08;8.68;;;;;;;11.77;57.67;98499.03;4502863;31;20126;-87
2022/01/03 00:49:41;;;;;;;18.67;8.98;;;;;;;11.76;58.06;98497.38;4502931;31;20083;-87
2022/01/03 00:52:06;;;;;;;21.00;9.70;;;;;;;11.81;57.97;98504.97;4502866;31;20395;-87
2022/01/03 00:54:32;;;;;;;19.15;9.45;;;;;;;11.55;58.74;98498.69;4502798;31;20095;-87
2022/01/03 00:57:04;;;;;;;25.50;12.85;;;;;;;11.62;58.83;98489.47;4488448;31;20363;-86
2022/01/03 00:59:38;;;;;;;22.40;11.93;;;;;;;11.55;59.56;98501.34;4503063;31;20130;-87
2022/01/03 01:02:05;;;;;;;24.00;11.85;;;;;;;11.51;60.11;98510.41;4483818;31;20143;-86
2022/01/03 01:04:30;;;;;;;20.27;10.48;;;;;;;11.44;60.37;98515.22;4473072;32;20160;-85
2022/01/03 01:06:57;;;;;;;25.35;12.18;;;;;;;11.38;59.93;98508.53;4473051;32;20097;-85
2022/01/03 01:09:25;;;;;;;24.30;11.65;;;;;;;10.92;61.25;98521.06;4475299;31;20163;-86
2022/01/03 01:11:55;;;;;;;26.83;13.52;;;;;;;10.94;61.41;98516.53;4493233;31;20088;-87
2022/01/03 01:14:22;;;;;;;25.00;12.90;;;;;;;10.85;61.68;98506.56;4492349;31;20166;-85
2022/01/03 01:16:48;;;;;;;24.80;13.45;;;;;;;10.93;61.51;98506.94;4493681;31;20084;-86
2022/01/03 01:19:14;;;;;;;25.58;12.50;;;;;;;10.93;61.54;98501.66;4473041;32;20516;-86
2022/01/03 01:21:40;;;;;;;23.67;11.93;;;;;;;10.94;61.37;98506.00;4471030;32;20088;-85
2022/01/03 01:24:06;;;;;;;23.60;12.13;;;;;;;11.02;61.00;98511.66;4472647;32;20108;-87
2022/01/03 01:29:16;;;;;;;23.50;11.73;;;;;;;11.05;60.49;98502.69;4486707;32;20102;-87
2022/01/03 01:31:48;;;;;;;19.98;10.57;;;;;;;11.09;60.12;98501.59;4472346;32;20124;-87
2022/01/03 01:34:27;;;;;;;21.95;10.43;;;;;;;11.09;59.97;98493.69;4486687;32;20101;-87
2022/01/03 01:36:55;;;;;;;20.17;9.02;;;;;;;11.01;59.80;98497.63;4472512;32;20242;-86
2022/01/03 01:39:23;;;;;;;22.27;9.85;;;;;;;11.14;59.14;98481.06;4486554;32;20391;-86
2022/01/03 01:41:55;;;;;;;20.20;9.18;;;;;;;11.11;58.97;98492.63;4486393;32;20080;-88
2022/01/03 01:44:22;;;;;;;19.67;9.65;;;;;;;11.04;59.20;98485.19;4473502;31;20100;-90
2022/01/03 01:46:53;;;;;;;22.93;12.10;;;;;;;11.11;58.66;98490.00;4502295;31;20110;-89
2022/01/03 01:49:20;;;;;;;21.12;9.40;;;;;;;11.06;58.84;98472.78;4488155;31;20461;-87
2022/01/03 01:51:48;;;;;;;19.92;10.23;;;;;;;10.98;58.39;98478.50;4487870;31;20404;-86
2022/01/03 01:54:16;;;;;;;24.35;11.50;;;;;;;11.00;58.38;98480.09;4486903;31;20115;-87
2022/01/03 01:57:07;;;;;;;16.60;8.48;;;;;;;10.94;58.55;98479.66;4486231;32;20119;-87
2022/01/03 02:00:04;;;;;;;23.70;12.77;;;;;;;11.03;57.35;98473.81;4487137;32;20073;-87
2022/01/03 02:02:37;;;;;;;25.90;13.68;;;;;;;10.90;58.88;98471.06;4491232;31;20081;-87
2022/01/03 02:05:34;;;;;;;25.45;14.38;;;;;;;10.93;59.22;98467.41;4489682;31;20096;-86
2022/01/03 02:08:08;;;;;;;29.70;14.65;;;;;;;10.86;59.62;98469.56;4480274;32;20135;-87
2022/01/03 02:10:45;;;;;;;27.13;13.70;;;;;;;10.80;59.90;98476.06;4472718;32;20080;-88
2022/01/03 02:13:20;;;;;;;25.48;13.45;;;;;;;10.60;59.99;98472.00;4474741;32;20148;-87
2022/01/03 02:15:50;;;;;;;25.10;13.20;;;;;;;10.69;59.90;98473.22;4493211;31;20099;-87
2022/01/03 02:18:15;;;;;;;22.87;11.48;;;;;;;10.74;59.54;98470.28;4496298;31;20524;-90
2022/01/03 02:20:41;;;;;;;21.20;10.18;;;;;;;10.61;59.81;98476.31;4498346;31;20103;-89
2022/01/03 02:23:06;;;;;;;22.20;10.68;;;;;;;10.74;59.54;98480.84;4490863;31;20126;-89
2022/01/03 02:25:32;;;;;;;26.55;12.25;;;;;;;10.87;58.68;98473.03;4500880;31;20092;-88
2022/01/03 02:27:59;;;;;;;28.35;14.02;;;;;;;10.84;59.05;98473.25;4493382;31;20119;-88
2022/01/03 02:30:28;;;;;;;25.48;14.60;;;;;;;10.79;59.52;98470.88;4495277;31;20092;-88
2022/01/03 02:32:54;;;;;;;27.80;13.88;;;;;;;10.81;59.63;98464.56;4485301;31;20106;-89
2022/01/03 02:35:20;;;;;;;26.55;13.38;;;;;;;10.79;59.90;98460.34;4490717;31;20081;-88
2022/01/03 02:37:47;;;;;;;27.87;13.77;;;;;;;10.73;60.20;98469.47;4485510;32;20149;-87
2022/01/03 02:40:13;;;;;;;25.95;13.50;;;;;;;10.73;60.11;98471.25;4492414;31;20072;-89
2022/01/03 02:42:40;;;;;;;29.27;14.52;;;;;;;10.83;60.04;98467.13;4488163;31;20132;-87
2022/01/03 02:45:25;;;;;;;28.40;15.68;;;;;;;10.83;59.90;98456.56;4487820;31;20104;-90
2022/01/03 02:47:54;;;;;;;27.40;14.70;;;;;;;10.77;60.01;98457.78;4485033;32;20131;-91
2022/01/03 02:50:21;;;;;;;28.70;14.82;;;;;;;10.76;59.99;98473.72;4487834;32;20493;-91
2022/01/03 02:52:48;;;;;;;27.73;16.00;;;;;;;10.82;59.75;98461.00;4498641;31;20446;-89
2022/01/03 02:55:15;;;;;;;25.80;14.48;;;;;;;10.73;59.97;98476.53;4490281;31;20114;-91
2022/01/03 02:57:46;;;;;;;26.15;13.30;;;;;;;10.76;59.84;98471.91;4485559;32;20209;-90
2022/01/03 03:00:15;;;;;;;29.12;14.63;;;;;;;10.89;58.93;98472.00;4494645;31;20098;-90
2022/01/03 03:02:40;;;;;;;29.23;15.55;;;;;;;10.82;59.20;98474.19;4493377;31;20127;-91
2022/01/03 03:05:08;;;;;;;29.10;15.52;;;;;;;10.84;59.41;98483.78;4500530;31;20096;-91
2022/01/03 03:07:34;;;;;;;27.92;14.73;;;;;;;10.91;59.17;98479.81;4487846;32;20079;-92
2022/01/03 03:10:00;;;;;;;27.30;13.43;;;;;;;10.94;59.16;98477.00;4487971;31;20371;-90
2022/01/03 03:12:26;;;;;;;25.30;13.65;;;;;;;10.92;59.17;98481.53;4496218;31;20404;-90
2022/01/03 03:14:52;;;;;;;24.25;12.98;;;;;;;10.84;59.19;98471.47;4499784;31;20117;-91
2022/01/03 03:17:18;;;;;;;23.10;11.48;;;;;;;10.86;58.98;98450.28;4498299;31;20096;-89
2022/01/03 03:20:07;;;;;;;20.58;10.68;;;;;;;10.97;58.64;98455.72;4477523;32;20103;-90
2022/01/03 03:22:33;;;;;;;19.15;9.48;;;;;;;11.06;57.86;98457.78;4487917;32;20140;-90
2022/01/03 03:25:19;;;;;;;18.45;9.15;;;;;;;11.11;57.70;98455.72;4487893;31;20092;-90
2022/01/03 03:27:48;;;;;;;19.60;9.68;;;;;;;11.13;57.18;98442.47;4500109;31;20091;-88
2022/01/03 03:30:13;;;;;;;19.70;9.63;;;;;;;11.29;56.75;98442.34;4475829;31;20093;-88
2022/01/03 03:32:39;;;;;;;21.37;10.05;;;;;;;11.29;56.61;98437.91;4498259;31;20120;-88
2022/01/03 03:35:05;;;;;;;19.90;9.25;;;;;;;11.42;56.42;98445.91;4495401;31;20096;-90
2022/01/03 03:37:30;;;;;;;18.70;8.77;;;;;;;11.43;56.41;98442.31;4478510;32;20237;-89
2022/01/03 03:39:56;;;;;;;19.02;9.20;;;;;;;11.36;56.00;98431.31;4500679;31;20146;-90
2022/01/03 03:42:21;;;;;;;20.58;10.27;;;;;;;11.48;55.42;98427.03;4473319;32;20137;-90
2022/01/03 03:44:47;;;;;;;18.60;9.20;;;;;;;11.44;55.98;98425.53;4487507;32;20101;-90
2022/01/03 03:47:13;;;;;;;19.10;9.38;;;;;;;11.41;56.10;98437.16;4487520;32;20088;-91
2022/01/03 03:49:38;;;;;;;21.02;9.90;;;;;;;11.44;56.09;98433.47;4473283;32;20085;-91
2022/01/03 03:52:04;;;;;;;21.10;10.32;;;;;;;11.52;55.28;98436.44;4487371;32;20463;-90
2022/01/03 03:54:30;;;;;;;21.30;9.85;;;;;;;11.46;55.74;98441.28;4487281;32;20352;-91
2022/01/03 03:56:58;;;;;;;20.92;9.82;;;;;;;11.44;55.39;98445.81;4487422;32;20177;-90
2022/01/03 03:59:25;;;;;;;20.12;9.05;;;;;;;11.48;55.34;98444.66;4487358;32;20479;-90
2022/01/03 04:01:51;;;;;;;18.98;9.32;;;;;;;11.49;55.12;98448.97;4473417;32;20135;-90
2022/01/03 04:04:18;;;;;;;16.00;8.82;;;;;;;11.60;54.87;98438.59;4473348;32;20097;-91
2022/01/03 04:06:44;;;;;;;20.48;9.20;;;;;;;11.63;54.72;98434.91;4487724;32;20168;-90
2022/01/03 04:09:09;;;;;;;18.98;8.45;;;;;;;11.67;54.42;98441.69;4483206;31;20419;-91
2022/01/03 04:11:35;;;;;;;16.90;8.00;;;;;;;11.71;54.20;98443.19;4502707;31;20076;-91
2022/01/03 04:14:00;;;;;;;16.87;8.32;;;;;;;11.77;53.96;98446.25;4503075;31;20110;-90
2022/01/03 04:16:26;;;;;;;17.12;8.38;;;;;;;11.82;53.66;98435.44;4502827;31;20152;-91
2022/01/03 04:18:52;;;;;;;17.25;7.65;;;;;;;11.87;53.60;98430.66;4501480;31;20419;-91
2022/01/03 04:21:17;;;;;;;15.77;6.90;;;;;;;11.94;53.34;98437.28;4503028;31;20087;-89
2022/01/03 04:23:43;;;;;;;15.48;7.18;;;;;;;11.96;52.88;98443.31;4502986;31;20119;-90
2022/01/03 04:26:08;;;;;;;14.80;6.97;;;;;;;11.98;52.22;98437.94;4503022;31;20110;-90
2022/01/03 04:28:34;;;;;;;14.93;6.87;;;;;;;12.09;51.71;98434.56;4502941;31;20091;-91
2022/01/03 04:30:59;;;;;;;14.68;6.53;;;;;;;12.12;51.40;98437.84;4488679;31;20114;-91
2022/01/03 04:33:25;;;;;;;15.18;6.70;;;;;;;12.14;51.49;98443.03;4503009;31;20088;-90
2022/01/03 04:35:51;;;;;;;16.02;6.37;;;;;;;12.23;51.75;98449.47;4488550;31;20485;-90
2022/01/03 04:38:18;;;;;;;11.75;4.05;;;;;;;12.23;51.79;98442.44;4503044;31;20095;-92
2022/01/03 04:40:43;;;;;;;11.48;3.80;;;;;;;12.13;51.07;98434.28;4503032;31;20076;-91
2022/01/03 04:43:09;;;;;;;16.17;8.10;;;;;;;12.27;50.84;98433.34;4502919;31;20152;-90
2022/01/03 04:45:34;;;;;;;24.98;13.68;;;;;;;12.35;51.94;98435.47;4502963;31;20110;-88
2022/01/03 04:47:59;;;;;;;15.20;6.30;;;;;;;12.32;52.28;98435.66;4502820;31;20092;-89
2022/01/03 04:50:25;;;;;;;13.82;5.55;;;;;;;12.11;52.20;98430.03;4493673;31;20137;-88
2022/01/03 04:52:50;;;;;;;9.82;4.03;;;;;;;12.12;51.94;98424.66;4487033;31;20115;-89
2022/01/03 04:55:16;;;;;;;9.55;2.75;;;;;;;12.25;51.48;98429.13;4486920;32;20097;-89
2022/01/03 04:57:41;;;;;;;7.93;2.78;;;;;;;12.32;51.21;98427.75;4486949;31;20107;-90
2022/01/03 05:00:08;;;;;;;7.85;2.37;;;;;;;12.22;51.18;98435.44;4485698;32;20096;-88
2022/01/03 05:02:36;;;;;;;9.50;2.80;;;;;;;12.44;50.71;98437.50;4487232;31;20147;-90
2022/01/03 05:05:01;;;;;;;8.13;2.60;;;;;;;12.50;50.47;98437.06;4487265;31;20116;-90
2022/01/03 05:07:27;;;;;;;10.80;2.60;;;;;;;12.73;49.92;98432.84;4486892;32;20092;-88
2022/01/03 05:09:52;;;;;;;9.35;3.45;;;;;;;12.79;49.85;98426.31;4485608;32;20089;-88
2022/01/03 05:12:18;;;;;;;8.75;2.75;;;;;;;12.79;49.67;98426.31;4486891;31;20096;-90
2022/01/03 05:14:44;;;;;;;9.85;2.70;;;;;;;12.89;49.46;98426.50;4486687;31;20105;-89
2022/01/03 05:17:09;;;;;;;10.27;3.00;;;;;;;12.95;49.21;98420.78;4485769;32;20111;-89
2022/01/03 05:19:35;;;;;;;8.55;2.55;;;;;;;12.83;48.91;98421.66;4487079;31;20495;-90
2022/01/03 05:22:00;;;;;;;9.80;2.55;;;;;;;12.74;49.09;98405.47;4496762;31;20096;-87
2022/01/03 05:24:26;;;;;;;13.48;2.80;;;;;;;12.94;48.75;98398.78;4486833;32;20084;-87
2022/01/03 05:26:51;;;;;;;8.88;2.12;;;;;;;13.03;48.11;98392.00;4472379;32;20080;-87
2022/01/03 05:29:17;;;;;;;7.47;2.55;;;;;;;12.92;48.04;98395.41;4486552;32;20104;-87
2022/01/03 05:31:42;;;;;;;10.18;2.55;;;;;;;13.00;47.78;98397.53;4485446;32;20361;-87
2022/01/03 05:34:08;;;;;;;6.78;1.85;;;;;;;13.05;47.65;98378.66;4486756;32;20084;-91
2022/01/03 05:36:33;;;;;;;8.77;2.60;;;;;;;13.23;46.87;98380.00;4486582;32;20076;-88
2022/01/03 05:38:58;;;;;;;7.78;2.20;;;;;;;13.30;46.42;98377.78;4472223;32;20419;-88
2022/01/03 05:41:24;;;;;;;9.23;2.40;;;;;;;13.09;46.53;98380.97;4486571;32;20118;-88
2022/01/03 05:43:50;;;;;;;8.05;2.10;;;;;;;13.30;46.16;98373.34;4486668;32;20088;-90
2022/01/03 05:46:15;;;;;;;6.87;2.00;;;;;;;13.45;45.68;98379.31;4486712;32;20104;-90
2022/01/03 05:48:41;;;;;;;6.15;2.00;;;;;;;13.54;45.48;98365.41;4486606;32;20105;-90
2022/01/03 05:51:07;;;;;;;5.90;1.90;;;;;;;13.51;45.49;98370.09;4472208;32;20381;-89
2022/01/03 05:53:32;;;;;;;10.73;2.42;;;;;;;13.71;44.96;98377.41;4486462;32;20115;-90
2022/01/03 05:56:01;;;;;;;5.85;2.03;;;;;;;13.76;44.92;98375.25;4486572;32;20148;-91
2022/01/03 05:58:27;;;;;;;11.93;2.17;;;;;;;13.60;44.95;98374.72;4486595;32;20428;-89
2022/01/03 06:00:53;;;;;;;9.18;2.30;;;;;;;13.76;44.64;98383.19;4472129;32;20096;-90
2022/01/03 06:03:22;;;;;;;7.75;1.80;;;;;;;13.66;44.91;98392.78;4486352;32;20107;-90
2022/01/03 06:08:22;;;;;;;6.97;2.15;;;;;;;13.81;44.92;98393.47;4490490;31;20271;-88
2022/01/03 06:10:47;;;;;;;7.03;1.87;;;;;;;13.84;45.37;98377.34;4493013;31;20100;-89
2022/01/03 06:13:14;;;;;;;8.43;2.25;;;;;;;13.87;45.86;98406.25;4486270;32;20100;-90
2022/01/03 06:15:41;;;;;;;5.77;1.70;;;;;;;14.01;45.50;98407.84;4471904;32;20076;-90
2022/01/03 06:18:10;;;;;;;7.50;2.08;;;;;;;13.99;45.74;98390.41;4471791;32;20088;-91
2022/01/03 06:20:38;;;;;;;7.15;2.03;;;;;;;13.85;47.35;98394.91;4472203;32;20135;-91
2022/01/03 06:23:03;;;;;;;;;;;;;;;13.86;47.21;98395.75;4486609;32;20092;-91
2022/01/03 06:25:28;;;;;;;8.27;2.00;;;;;;;14.03;48.05;98397.16;4472119;32;20080;-89
2022/01/03 06:27:54;;;;;;;7.80;2.22;;;;;;;14.07;47.75;98391.50;4486239;32;20100;-89
2022/01/03 06:30:19;;;;;;;7.28;2.28;;;;;;;13.99;48.28;98375.34;4486327;32;20080;-88
2022/01/03 06:32:45;;;;;;;8.77;2.22;;;;;;;13.82;48.32;98387.19;4486113;32;20088;-88
2022/01/03 06:35:10;;;;;;;7.45;2.08;;;;;;;13.82;48.48;98386.34;4486071;32;20128;-88
2022/01/03 06:37:36;;;;;;;8.55;2.20;;;;;;;14.03;47.90;98398.00;4486151;32;20072;-89
2022/01/03 06:40:03;;;;;;;6.05;2.33;;;;;;;13.86;48.22;98395.75;4486163;32;20085;-92
2022/01/03 06:42:28;;;;;;;8.25;2.70;;;;;;;13.64;48.26;98404.44;4490561;31;20084;-85
2022/01/03 06:44:53;;;;;;;6.12;1.58;;;;;;;13.80;48.28;98423.53;4503895;31;20435;-90
2022/01/03 06:47:19;;;;;;;5.62;1.50;;;;;;;13.71;48.40;98432.16;4489308;31;20099;-85
2022/01/03 06:49:45;;;;;;;7.97;1.98;;;;;;;14.01;47.28;98431.69;4503824;31;20107;-82
2022/01/03 06:52:11;;;;;;;8.40;1.90;;;;;;;13.71;47.75;98446.25;4503813;31;20083;-83
2022/01/03 06:54:36;;;;;;;9.52;1.77;;;;;;;13.59;47.86;98438.34;4489421;31;20138;-91
2022/01/03 06:57:02;;;;;;;6.72;1.62;;;;;;;13.86;47.30;98435.47;4497973;31;20126;-89
2022/01/03 06:59:27;;;;;;;6.43;1.75;;;;;;;13.89;46.88;98437.91;4474987;32;20101;-83
2022/01/03 07:01:52;;;;;;;7.60;1.75;;;;;;;13.96;46.44;98439.13;4493433;31;20112;-86
2022/01/03 07:04:18;;;;;;;6.78;1.73;;;;;;;13.86;46.47;98438.13;4491952;31;20100;-86
2022/01/03 07:06:43;;;;;;;4.95;1.55;;;;;;;14.04;45.90;98431.47;4492961;31;21025;-85
2022/01/03 07:09:09;;;;;;;6.62;1.70;;;;;;;13.86;45.73;98419.59;4489708;31;20153;-87
2022/01/03 07:11:34;;;;;;;8.63;1.50;;;;;;;14.11;45.32;98416.78;4483987;32;20112;-88
2022/01/03 07:18:56;;;;;;;4.68;1.40;;;;;;;14.02;44.98;98421.94;4487803;31;20136;-93
2022/01/03 07:19:39;;;;;;;6.85;1.40;;;;;;;14.06;45.22;98418.09;4486795;32;20126;-86
2022/01/03 07:22:04;;;;;;;8.02;1.60;;;;;;;13.95;45.54;98366.78;4486575;32;20587;-82
2022/01/03 07:24:32;;;;;;;4.45;1.30;;;;;;;13.85;45.81;98412.59;4487844;31;20144;-90
2022/01/03 07:27:00;;;;;;;4.22;1.20;;;;;;;14.14;45.37;98403.31;4486269;31;20092;-87
2022/01/03 07:29:25;;;;;;;3.37;1.20;;;;;;;14.14;44.77;98415.75;4497317;31;20238;-88
2022/01/03 07:31:51;;;;;;;3.90;1.20;;;;;;;14.26;43.85;98409.50;4475631;32;20109;-87
2022/01/03 07:34:16;;;;;;;4.75;1.12;;;;;;;14.26;43.55;98417.44;4489197;31;20095;-87
2022/01/03 07:36:42;;;;;;;3.37;0.90;;;;;;;14.28;43.59;98412.03;4494110;31;20195;-93
2022/01/03 07:39:07;;;;;;;5.07;1.10;;;;;;;14.26;43.59;98411.31;4494546;31;20139;-91
2022/01/03 07:41:32;;;;;;;4.50;0.93;;;;;;;14.23;43.26;98408.87;4476731;32;20108;-91
2022/01/03 07:43:58;;;;;;;3.47;1.00;;;;;;;14.41;43.08;98412.81;4492303;31;20084;-92
2022/01/03 07:46:23;;;;;;;5.43;1.10;;;;;;;14.24;43.09;98405.28;4495454;31;20405;-90
2022/01/03 07:48:49;;;;;;;4.22;0.98;;;;;;;14.50;42.71;98414.72;4480204;31;20126;-89
2022/01/03 07:51:14;;;;;;;4.00;0.93;;;;;;;14.64;42.40;98386.34;4494209;31;20508;-85
2022/01/03 07:53:42;;;;;;;5.57;1.30;;;;;;;14.65;42.46;98390.69;4480160;31;20135;-84
2022/01/03 07:56:09;;;;;;;3.47;1.10;;;;;;;14.69;42.23;98416.00;4499102;31;20617;-82
2022/01/03 07:58:35;;;;;;;3.37;0.90;;;;;;;14.58;42.63;98418.63;4503109;31;20100;-89
2022/01/03 08:01:00;;;;;;;4.55;1.30;;;;;;;14.68;42.01;98412.50;4488816;31;20470;-88
2022/01/03 08:03:26;;;;;;;7.35;1.33;;;;;;;14.62;42.18;98420.94;4503016;31;20142;-88
2022/01/03 08:05:52;;;;;;;5.80;0.90;;;;;;;14.71;41.63;98396.34;4503037;31;20118;-83
2022/01/03 08:08:17;;;;;;;4.22;1.00;;;;;;;14.63;41.89;98430.56;4503290;31;20132;-83
2022/01/03 08:10:45;;;;;;;5.80;1.37;;;;;;;14.82;41.78;98422.03;4503126;31;20443;-85
2022/01/03 08:13:10;;;;;;;5.28;1.10;;;;;;;14.88;41.37;98440.13;4502835;31;20356;-87
2022/01/03 08:15:38;;;;;;;4.18;0.90;;;;;;;14.77;41.36;98418.91;4486621;31;20114;-88
2022/01/03 08:18:03;;;;;;;5.05;1.02;;;;;;;14.56;42.05;98416.06;4487991;31;20112;-85
2022/01/03 08:20:29;;;;;;;3.25;0.82;;;;;;;14.67;41.62;98437.31;4502644;31;20087;-85
2022/01/03 08:22:54;;;;;;;3.87;0.90;;;;;;;14.36;42.28;98418.44;4502276;31;20092;-87
2022/01/03 08:25:20;;;;;;;5.50;1.00;;;;;;;14.72;42.21;98405.16;4502356;31;20136;-85
2022/01/03 08:27:46;;;;;;;3.47;1.00;;;;;;;14.75;42.19;98431.44;4487929;31;20104;-84
2022/01/03 08:30:11;;;;;;;4.32;1.00;;;;;;;14.79;41.82;98416.97;4503100;31;20096;-85
2022/01/03 08:32:37;;;;;;;4.65;0.90;;;;;;;14.67;42.00;98437.31;4503216;31;20396;-85
2022/01/03 08:35:02;;;;;;;5.57;1.05;;;;;;;14.61;42.21;98423.72;4503030;31;20373;-85
2022/01/03 08:37:28;;;;;;;3.58;0.90;;;;;;;14.55;42.43;98417.03;4503050;31;20092;-85
2022/01/03 08:39:53;;;;;;;4.70;1.10;;;;;;;14.63;42.30;98430.56;4503108;31;20127;-85
2022/01/03 08:42:20;;;;;;;4.40;1.08;;;;;;;14.70;42.43;98413.25;4488610;31;20096;-85
2022/01/03 08:44:46;;;;;;;5.27;1.07;;;;;;;14.71;42.49;98416.72;4503056;31;20088;-84
2022/01/03 08:47:11;;;;;;;5.05;0.80;;;;;;;14.61;42.54;98439.63;4502938;31;20119;-85
2022/01/03 08:49:37;;;;;;;7.62;0.90;;;;;;;14.28;43.54;98423.47;4502933;31;20099;-85
2022/01/03 08:52:05;;;;;;;7.18;1.40;;;;;;;14.30;43.58;98436.63;4488466;31;20107;-85
2022/01/03 08:54:31;;;;;;;6.93;1.23;;;;;;;14.42;43.54;98433.03;4488752;31;20083;-84
2022/01/03 08:56:56;;;;;;;5.15;1.27;;;;;;;14.19;44.11;98424.16;4502899;31;20195;-85
2022/01/03 08:59:22;;;;;;;5.03;1.30;;;;;;;14.05;44.40;98427.84;4503007;31;20080;-84
2022/01/03 09:01:48;;;;;;;4.55;1.05;;;;;;;14.13;44.21;98456.41;4502830;31;20080;-85
2022/01/03 09:04:13;;;;;;;6.00;1.08;;;;;;;14.01;44.40;98426.41;4502570;31;20076;-84
2022/01/03 09:06:38;;;;;;;5.85;1.37;;;;;;;14.16;44.21;98419.94;4502867;31;20123;-84
2022/01/03 09:09:06;;;;;;;3.80;1.00;;;;;;;14.11;43.79;98422.09;4488401;31;20169;-85
2022/01/03 09:11:31;;;;;;;7.43;1.20;;;;;;;13.86;44.50;98444.25;4502779;31;20106;-84
2022/01/03 09:13:57;;;;;;;3.33;0.90;;;;;;;13.88;44.73;98473.28;4488252;31;20377;-84
2022/01/03 09:16:22;;;;;;;4.22;0.90;;;;;;;13.91;44.27;98462.47;4502422;31;20111;-84
2022/01/03 09:18:48;;;;;;;2.50;0.68;;;;;;;13.82;44.40;98437.50;4502580;31;20100;-85
2022/01/03 09:21:13;;;;;;;3.62;0.88;;;;;;;13.87;44.04;98423.91;4502653;31;20068;-84
2022/01/03 09:23:44;;;;;;;4.47;0.80;;;;;;;13.90;43.77;98445.72;4502893;31;20080;-84
2022/01/03 09:28:54;;;;;;;4.25;0.90;;;;;;;14.06;43.38;98445.44;4502738;31;20520;-84
2022/01/03 09:31:27;;;;;;;3.80;1.08;;;;;;;13.92;43.67;98453.56;4488264;31;20135;-84
2022/01/03 09:33:54;;;;;;;4.35;0.93;;;;;;;13.84;43.67;98455.94;4502577;31;20371;-85
2022/01/03 09:36:21;;;;;;;1.83;0.70;;;;;;;13.81;43.86;98456.13;4502481;31;20118;-84
2022/01/03 09:38:46;;;;;;;3.72;1.12;;;;;;;13.79;43.89;98452.75;4502886;31;20159;-84
2022/01/03 09:41:13;;;;;;;3.65;0.80;;;;;;;14.01;43.58;98454.69;4502720;31;20084;-85
2022/01/03 09:43:49;;;;;;;3.75;0.80;;;;;;;13.87;43.91;98440.66;4488322;31;20092;-85
2022/01/03 09:46:23;;;;;;;4.55;0.90;;;;;;;14.03;43.74;98436.88;4502507;31;20103;-84
2022/01/03 09:48:52;;;;;;;4.50;0.90;;;;;;;13.86;43.95;98416.94;4488143;31;20163;-84
2022/01/03 09:51:29;;;;;;;3.47;0.85;;;;;;;13.95;43.79;98435.62;4475192;31;20458;-84
2022/01/03 09:53:57;;;;;;;2.10;0.80;;;;;;;13.99;43.87;98425.66;4488287;31;20547;-85
2022/01/03 09:56:23;;;;;;;2.72;0.82;;;;;;;14.11;43.64;98406.19;4487820;31;20100;-84
2022/01/03 09:58:49;;;;;;;5.72;0.80;;;;;;;14.16;43.53;98397.91;4487995;31;20172;-84
2022/01/03 10:01:14;;;;;;;2.62;0.70;;;;;;;14.02;43.65;98403.41;4487891;31;20128;-85
2022/01/03 10:03:47;;;;;;;3.35;0.80;;;;;;;13.94;43.95;98398.66;4502206;31;20080;-85
2022/01/03 10:06:17;;;;;;;5.03;0.88;;;;;;;13.90;44.26;98389.28;4488503;31;20159;-84
2022/01/03 10:08:43;;;;;;;5.55;0.90;;;;;;;13.67;44.74;98389.16;4502237;31;20118;-84
2022/01/03 10:11:09;;;;;;;5.10;1.10;;;;;;;13.85;44.38;98394.91;4487705;31;20076;-84
2022/01/03 10:13:34;;;;;;;4.35;1.05;;;;;;;13.66;44.93;98378.72;4502015;31;20445;-84
2022/01/03 10:15:59;;;;;;;4.68;1.02;;;;;;;13.73;44.88;98394.03;4501893;31;20118;-84
2022/01/03 10:18:26;;;;;;;5.28;0.77;;;;;;;13.83;44.66;98402.13;4503759;31;20099;-84
2022/01/03 10:20:52;;;;;;;2.57;0.77;;;;;;;13.87;44.49;98405.38;4504178;31;20088;-84
2022/01/03 10:23:18;;;;;;;2.78;0.70;;;;;;;13.99;44.53;98406.28;4503903;31;20406;-85
2022/01/03 10:25:46;;;;;;;4.53;0.95;;;;;;;13.87;44.64;98398.28;4503938;31;20110;-85
2022/01/03 10:28:22;;;;;;;5.75;1.10;;;;;;;14.01;44.28;98399.06;4503973;31;20506;-84
2022/01/03 10:30:48;;;;;;;2.30;0.95;;;;;;;13.82;44.69;98389.84;4489692;31;20084;-85
2022/01/03 10:33:15;;;;;;;2.47;0.65;;;;;;;13.85;44.59;98378.16;4489487;31;20401;-84
2022/01/03 10:35:43;;;;;;;3.37;0.70;;;;;;;13.92;44.51;98376.75;4503753;31;20096;-85
2022/01/03 10:38:09;;;;;;;2.80;0.93;;;;;;;14.18;44.05;98374.81;4503868;31;20107;-85
2022/01/03 10:40:36;;;;;;;2.03;0.73;;;;;;;14.29;43.84;98361.59;4489753;31;20092;-85
2022/01/03 10:43:15;;;;;;;2.47;0.77;;;;;;;14.38;43.95;98369.78;4489520;31;20106;-85
2022/01/03 10:45:41;;;;;;;2.67;0.77;;;;;;;14.48;43.77;98371.59;4503744;31;20115;-84
2022/01/03 10:48:30;;;;;;;1.98;0.70;;;;;;;14.29;44.18;98372.19;4503903;31;20099;-84
2022/01/03 10:50:57;;;;;;;2.35;0.80;;;;;;;14.20;44.17;98378.19;4489504;31;20151;-84
2022/01/03 10:53:43;;;;;;;2.47;0.70;;;;;;;14.16;44.54;98366.97;4504088;31;20465;-83
2022/01/03 10:56:24;;;;;;;3.75;0.73;;;;;;;13.86;45.21;98367.47;4488734;31;20856;-85
2022/01/03 10:58:51;;;;;;;3.95;0.75;;;;;;;14.08;45.09;98352.59;4503882;31;20513;-85
2022/01/03 11:01:26;;;;;;;5.25;0.85;;;;;;;13.85;45.69;98354.34;4503749;31;20079;-84
2022/01/03 11:03:53;;;;;;;3.12;0.98;;;;;;;13.99;45.16;98350.69;4503744;31;20084;-85
2022/01/03 11:11:38;;;;;;;5.20;1.00;;;;;;;14.10;45.24;98355.97;4503752;31;20169;-84
2022/01/03 11:14:04;;;;;;;3.17;1.05;;;;;;;14.02;45.23;98359.22;4489346;31;20153;-85
2022/01/03 11:16:35;;;;;;;4.47;1.15;;;;;;;14.03;45.62;98330.94;4489093;31;20123;-84
2022/01/03 11:19:00;;;;;;;5.60;1.08;;;;;;;14.06;45.64;98338.63;4503462;31;20108;-84
2022/01/03 11:21:26;;;;;;;4.47;1.15;;;;;;;13.98;45.65;98376.28;4489170;31;20130;-84
2022/01/03 11:24:09;;;;;;;5.62;1.20;;;;;;;13.77;45.87;98329.31;4489420;31;20431;-85
2022/01/03 11:26:38;;;;;;;3.50;0.93;;;;;;;13.99;45.41;98330.31;4489646;31;20095;-84
2022/01/03 11:29:04;;;;;;;5.05;1.23;;;;;;;14.00;45.33;98341.75;4488382;31;20125;-85
2022/01/03 11:31:38;;;;;;;3.92;1.05;;;;;;;13.94;45.38;98325.38;4503487;31;20136;-85
2022/01/03 11:34:04;;;;;;;6.72;1.10;;;;;;;14.21;45.30;98329.53;4503690;31;20127;-85
2022/01/03 11:36:30;;;;;;;4.47;1.00;;;;;;;14.28;44.42;98324.59;4489011;31;20126;-85
2022/01/03 11:38:56;;;;;;;4.80;0.85;;;;;;;14.15;44.30;98337.94;4501126;31;20113;-83
2022/01/03 11:41:22;;;;;;;3.60;0.82;;;;;;;14.25;43.93;98333.63;4487510;32;20111;-82
2022/01/03 11:43:49;;;;;;;4.25;0.80;;;;;;;14.35;43.64;98339.91;4473157;32;20084;-84
2022/01/03 11:46:14;;;;;;;3.95;0.70;;;;;;;14.22;43.92;98336.53;4487506;32;20080;-84